No se requiere un especial cuidado respecto a la situación meteorológica.   -   No hay avisos

Informes METAR

 

LEZL - Sevilla, Spain
Distancia de la estación: ENE 8km
Actualización: 25/05/2016 20:30
Despejado
Despejado
 Viento de SO
Viento: SO 22 km/h
Temperatura: 23°C
Rocío: 12°C
Humedad: 50%
Barómetro: 1010 hPa
Resumen: Despejado
Visibilidad: mayor de 10 km
2016/05/25 18:30 LEZL 251830Z 22012KT CAVOK 23/12 Q1010 NOSIG
LEMO - Morón, Spain
Distancia de la estación: SE 43km
Actualización: 25/05/2016 20:00
Despejado
Despejado
 Viento de O
Viento: O 15 km/h
Temperatura: 24°C
Rocío: 13°C
Humedad: 50%
Barómetro: 1010 hPa
Resumen: Despejado
Visibilidad: mayor de 10 km
2016/05/25 18:00 LEMO 251800Z 26008KT 240V320 CAVOK 24/13 Q1010 NOSIG
LEJR - Jeréz, Spain
Distancia de la estación: S 71km
Actualización: 25/05/2016 20:30
Despejado
Despejado
 Viento de O
Viento: O 19 km/h
Temperatura: 21°C
Rocío: 12°C
Humedad: 57%
Barómetro: 1011 hPa
Resumen: Despejado
Visibilidad: mayor de 10 km
2016/05/25 18:30 LEJR 251830Z 28010KT 240V330 CAVOK 21/12 Q1011
 
LERT - Rota, Spain
Distancia de la estación: SSO 89km
Actualización: 25/05/2016 20:00
Despejado
Despejado
 Viento de O
Viento: O 22 km/h
Temperatura: 20°C
Rocío: 14°C
Humedad: 69%
Barómetro: 1011 hPa
Resumen: Despejado
Visibilidad: mayor de 10 km
2016/05/25 18:00 LERT 251800Z 27012KT 230V300 CAVOK 20/14 Q1011 NOSIG
LEMG - Málaga, Spain
Distancia de la estación: ESE 157km
Actualización: 25/05/2016 20:30
Despejado
Despejado
 Viento de SSE
Viento: SSE 6 km/h
Temperatura: 27°C
Índice de calor: 27°C
Rocío: 14°C
Humedad: 45%
Barómetro: 1008 hPa
Resumen: Despejado
Visibilidad: mayor de 10 km
2016/05/25 18:30 LEMG 251830Z 16003KT 130V190 CAVOK 27/14 Q1008 NOSIG
LEBA - Córdoba, Spain
Distancia de la estación: ENE 115km
Actualización: 25/05/2016 20:00
Despejado
Despejado
 Viento de OSO
Viento: OSO 6 km/h
Temperatura: 25°C
Rocío: 8°C
Humedad: 34%
Barómetro: 1010 hPa
Resumen: Despejado
Visibilidad: mayor de 10 km
2016/05/25 18:00 LEBA 251800Z 24003KT 200V280 CAVOK 25/08 Q1010
 
LEGR - Granada, Spain
Distancia de la estación: E 198km
Actualización: 25/05/2016 20:30
Despejado
Despejado
 Viento de O
Viento: O 22 km/h
Temperatura: 25°C
Rocío: 8°C
Humedad: 34%
Barómetro: 1010 hPa
Resumen: Despejado
Visibilidad: mayor de 10 km
2016/05/25 18:30 LEGR 251830Z 27012KT CAVOK 25/08 Q1010
LEAM - Almería, Spain
Distancia de la estación: E 326km
Actualización: 25/05/2016 20:30
Despejado
Despejado
 Viento de variable
Viento: variable 2 km/h
Temperatura: 21°C
Rocío: 17°C
Humedad: 78%
Barómetro: 1009 hPa
Resumen: Despejado
Visibilidad: mayor de 10 km
2016/05/25 18:30 LEAM 251830Z VRB01KT CAVOK 21/17 Q1009
LEMD - Madrid/Barajas, Spain
Distancia de la estación: NNE 402km
Actualización: 25/05/2016 20:30
Despejado
Despejado
 Viento de OSO
Viento: OSO 6 km/h
Temperatura: 19°C
Rocío: 6°C
Humedad: 43%
Barómetro: 1012 hPa
Resumen: Despejado
Visibilidad: mayor de 10 km
2016/05/25 18:30 LEMD 251830Z 25003KT 170V320 CAVOK 19/06 Q1012 NOSIG
 
LEVD - Valladolid, Spain
Distancia de la estación: N 492km
Actualización: 25/05/2016 20:30
Despejado
Despejado
 Viento de ONO
Viento: ONO 6 km/h
Temperatura: 16°C
Rocío: 7°C
Humedad: 55%
Barómetro: 1012 hPa
Resumen: Despejado
Visibilidad: mayor de 10 km
2016/05/25 18:30 LEVD 251830Z 30003KT CAVOK 16/07 Q1012
LEBL - Barcelona, Spain
Distancia de la estación: NE 816km
Actualización: 25/05/2016 20:30
Poco nuboso
Poco nuboso
 Viento de SSO
Viento: SSO 4 km/h
Temperatura: 19°C
Rocío: 15°C
Humedad: 78%
Barómetro: 1011 hPa
Nubes: Poco nuboso
Visibilidad: 10 km
Detalles de las nubes: Poco nuboso 914 m
2016/05/25 18:30 LEBL 251830Z 20002KT 9999 FEW030 19/15 Q1011 NOSIG
LEVC - Valencia, Spain
Distancia de la estación: ENE 535km
Actualización: 25/05/2016 20:30
Poco nuboso
Poco nuboso
 Viento de E
Viento: E 13 km/h
Temperatura: 21°C
Rocío: 16°C
Humedad: 73%
Barómetro: 1011 hPa
Nubes: Poco nuboso
Visibilidad: 10 km
Detalles de las nubes: Poco nuboso 914 m
2016/05/25 18:30 LEVC 251830Z 09007KT 060V120 9999 FEW030 21/16 Q1011 NOSIG